createdAt,value
2019-03-20T00:01:13.566Z,41.50
2019-03-20T00:06:18.428Z,41.00
2019-03-20T00:11:23.344Z,41.20
2019-03-20T00:16:27.899Z,41.20
2019-03-20T00:21:32.981Z,42.00
2019-03-20T00:26:37.818Z,41.30
2019-03-20T00:31:42.702Z,41.40
2019-03-20T00:36:47.530Z,41.40
2019-03-20T00:41:52.330Z,41.40
2019-03-20T00:46:56.892Z,41.50
2019-03-20T00:52:01.644Z,41.50
2019-03-20T00:57:06.626Z,41.50
2019-03-20T01:02:11.571Z,41.70
2019-03-20T01:07:16.501Z,41.70
2019-03-20T01:12:21.613Z,41.60
2019-03-20T01:17:26.296Z,41.70
2019-03-20T01:22:31.107Z,41.80
2019-03-20T01:27:35.804Z,41.80
2019-03-20T01:32:40.558Z,41.70
2019-03-20T01:37:45.689Z,41.70
2019-03-20T01:42:50.707Z,41.70
2019-03-20T01:47:55.619Z,41.60
2019-03-20T01:53:00.491Z,41.80
2019-03-20T01:58:05.685Z,41.70
2019-03-20T02:03:10.725Z,41.90
2019-03-20T02:08:15.793Z,41.60
2019-03-20T02:13:20.351Z,41.80
2019-03-20T02:18:24.862Z,41.60
2019-03-20T02:23:29.333Z,41.40
2019-03-20T02:28:34.183Z,41.70
2019-03-20T02:33:38.914Z,41.50
2019-03-20T02:38:43.946Z,41.30
2019-03-20T02:43:48.758Z,41.30
2019-03-20T02:48:53.528Z,41.70
2019-03-20T02:53:58.332Z,41.00
2019-03-20T02:59:03.204Z,41.00
2019-03-20T03:04:08.011Z,41.00
2019-03-20T03:09:14.113Z,40.70
2019-03-20T03:14:18.970Z,41.40
2019-03-20T03:19:24.085Z,40.70
2019-03-20T03:24:28.575Z,40.80
2019-03-20T03:29:33.426Z,40.80
2019-03-20T03:34:38.184Z,40.80
2019-03-20T03:39:43.747Z,40.60
2019-03-20T03:44:48.549Z,40.90
2019-03-20T03:49:53.405Z,41.00
2019-03-20T03:54:58.228Z,41.00
2019-03-20T04:00:03.888Z,40.90
2019-03-20T04:05:08.962Z,41.30
2019-03-20T04:10:15.472Z,41.00
2019-03-20T04:15:20.114Z,41.10
2019-03-20T04:20:24.957Z,41.50
2019-03-20T04:25:29.719Z,41.50
2019-03-20T04:30:34.569Z,41.40
2019-03-20T04:35:39.366Z,41.50
2019-03-20T04:40:43.922Z,41.50
2019-03-20T04:45:48.738Z,41.60
2019-03-20T04:50:53.514Z,41.60
2019-03-20T04:55:58.268Z,41.50
2019-03-20T05:01:03.191Z,42.10
2019-03-20T05:06:08.024Z,41.60
2019-03-20T05:11:13.471Z,41.50
2019-03-20T05:16:18.037Z,41.40
2019-03-20T05:21:22.743Z,41.30
2019-03-20T05:26:27.508Z,41.30
2019-03-20T05:31:31.951Z,40.90
2019-03-20T05:36:36.708Z,40.60
2019-03-20T05:41:41.216Z,40.50
2019-03-20T05:46:45.963Z,40.40
2019-03-20T05:51:50.752Z,40.40
2019-03-20T05:56:55.227Z,40.60
2019-03-20T06:02:00.006Z,40.50
2019-03-20T06:07:04.918Z,40.40
2019-03-20T06:12:10.062Z,40.30
2019-03-20T06:17:14.825Z,40.30
2019-03-20T06:22:19.682Z,41.00
2019-03-20T06:27:24.534Z,40.40
2019-03-20T06:32:29.390Z,40.50
2019-03-20T06:37:34.125Z,40.90
2019-03-20T06:42:38.893Z,41.00
2019-03-20T06:47:44.005Z,41.10
2019-03-20T06:52:49.008Z,41.10
2019-03-20T06:57:53.590Z,41.50
2019-03-20T07:02:59.818Z,41.10
2019-03-20T07:08:04.740Z,41.00
2019-03-20T07:13:09.482Z,40.70
2019-03-20T07:18:14.167Z,40.20
2019-03-20T07:23:19.112Z,40.40
2019-03-20T07:28:23.690Z,40.30
2019-03-20T07:33:28.218Z,40.40
2019-03-20T07:38:33.141Z,40.40
2019-03-20T07:43:37.972Z,40.40
2019-03-20T07:48:42.746Z,40.30
2019-03-20T07:53:47.636Z,40.30
2019-03-20T07:58:53.511Z,40.20
2019-03-20T08:03:58.317Z,39.40
2019-03-20T08:09:04.207Z,39.80
2019-03-20T08:14:08.974Z,39.10
2019-03-20T08:19:14.091Z,39.30
2019-03-20T08:24:18.909Z,39.50
2019-03-20T08:29:23.718Z,39.70
2019-03-20T08:34:28.235Z,39.90
2019-03-20T08:39:33.116Z,39.70
2019-03-20T08:44:37.904Z,39.20
2019-03-20T08:49:42.792Z,39.10
2019-03-20T08:54:47.682Z,38.80
2019-03-20T08:59:52.836Z,38.80
2019-03-20T09:04:57.319Z,38.70
2019-03-20T09:10:02.103Z,38.80
2019-03-20T09:15:11.142Z,38.50
2019-03-20T09:20:16.876Z,38.20
2019-03-20T09:25:25.770Z,38.00
2019-03-20T09:30:30.713Z,38.00
2019-03-20T09:35:35.977Z,38.00
2019-03-20T09:40:40.889Z,37.70
2019-03-20T09:45:45.737Z,38.20
2019-03-20T09:50:50.869Z,38.20
2019-03-20T09:55:55.960Z,38.00
2019-03-20T10:01:01.003Z,38.50
2019-03-20T10:06:06.207Z,37.80
2019-03-20T10:11:11.409Z,38.80
2019-03-20T10:16:16.290Z,38.40
2019-03-20T10:21:21.015Z,38.50
2019-03-20T10:26:25.819Z,38.60
2019-03-20T10:31:30.713Z,38.80
2019-03-20T10:36:35.537Z,38.80
2019-03-20T10:41:40.339Z,39.00
2019-03-20T10:46:45.552Z,39.20
2019-03-20T10:51:50.555Z,39.10
2019-03-20T10:56:55.310Z,39.40
2019-03-20T11:02:00.991Z,39.40
2019-03-20T11:07:08.938Z,39.70
2019-03-20T11:12:13.871Z,39.90
2019-03-20T11:17:18.780Z,40.00
2019-03-20T11:22:23.696Z,40.20
2019-03-20T11:27:28.689Z,40.40
2019-03-20T11:32:33.814Z,40.40
2019-03-20T11:37:38.609Z,40.50
2019-03-20T11:42:43.534Z,40.50
2019-03-20T11:47:48.724Z,40.50
2019-03-20T11:52:53.231Z,40.60
2019-03-20T11:57:58.143Z,40.50
2019-03-20T12:03:03.133Z,40.70
2019-03-20T12:08:07.973Z,40.80
2019-03-20T12:13:13.481Z,41.00
2019-03-20T12:18:18.263Z,41.00
2019-03-20T12:23:22.782Z,41.30
2019-03-20T12:28:27.924Z,40.90
2019-03-20T12:33:32.670Z,40.80
2019-03-20T12:38:37.712Z,40.90
2019-03-20T12:43:42.225Z,40.80
2019-03-20T12:48:48.116Z,40.60
2019-03-20T12:53:52.813Z,40.60
2019-03-20T12:58:57.963Z,40.40
2019-03-20T13:04:02.742Z,40.30
2019-03-20T13:09:08.177Z,40.30
2019-03-20T13:14:14.105Z,40.50
2019-03-20T13:19:20.090Z,40.40
2019-03-20T13:24:24.705Z,40.50
2019-03-20T13:29:29.531Z,40.40
2019-03-20T13:34:34.499Z,40.50
2019-03-20T13:39:39.333Z,40.50
2019-03-20T13:44:43.965Z,40.50
2019-03-20T13:49:48.803Z,40.60
2019-03-20T13:54:53.685Z,40.60
2019-03-20T13:59:59.839Z,40.60
2019-03-20T14:05:06.311Z,40.80
2019-03-20T14:10:28.081Z,41.40
2019-03-20T14:15:33.243Z,41.40
2019-03-20T14:20:38.097Z,41.60
2019-03-20T14:25:44.160Z,41.70
2019-03-20T14:30:49.207Z,41.70
2019-03-20T14:35:54.263Z,41.80
2019-03-20T14:40:59.141Z,42.00
2019-03-20T14:46:04.289Z,42.00
2019-03-20T14:51:09.208Z,41.90
2019-03-20T14:56:15.221Z,41.70
2019-03-20T15:01:19.932Z,41.80
2019-03-20T15:06:24.769Z,41.80
2019-03-20T15:11:30.346Z,41.90
2019-03-20T15:16:35.424Z,41.70
2019-03-20T15:21:40.488Z,41.90
2019-03-20T15:26:45.306Z,41.90
2019-03-20T15:31:50.350Z,42.00
2019-03-20T15:36:55.484Z,42.00
2019-03-20T15:42:00.574Z,41.90
2019-03-20T15:47:05.745Z,42.00
2019-03-20T15:52:10.398Z,41.80
2019-03-20T15:57:15.074Z,41.90
2019-03-20T16:02:19.941Z,41.90
2019-03-20T16:07:24.623Z,41.90
2019-03-20T16:12:29.446Z,41.90
2019-03-20T16:17:34.313Z,41.90
2019-03-20T16:22:39.241Z,41.60
2019-03-20T16:27:44.069Z,41.50
2019-03-20T16:32:48.923Z,41.50
2019-03-20T16:37:54.051Z,41.40
2019-03-20T16:42:58.902Z,41.50
2019-03-20T16:48:04.710Z,41.50
2019-03-20T16:53:09.561Z,41.50
2019-03-20T16:58:14.332Z,41.60
2019-03-20T17:03:19.195Z,41.50
2019-03-20T17:08:24.329Z,41.40
2019-03-20T17:13:29.114Z,41.20
2019-03-20T17:18:33.966Z,41.20
2019-03-20T17:23:39.080Z,41.30
2019-03-20T17:28:43.948Z,41.40
2019-03-20T17:33:49.180Z,41.40
2019-03-20T17:38:54.037Z,42.00
2019-03-20T17:43:59.221Z,43.10
2019-03-20T17:49:04.350Z,42.70
2019-03-20T17:54:09.283Z,42.60
2019-03-20T17:59:14.665Z,42.70
2019-03-20T18:04:19.583Z,42.70
2019-03-20T18:09:24.420Z,42.90
2019-03-20T18:14:29.208Z,42.80
2019-03-20T18:19:34.369Z,42.80
2019-03-20T18:24:39.226Z,42.70
2019-03-20T18:29:44.407Z,42.50
2019-03-20T18:34:49.385Z,42.40
2019-03-20T18:39:54.090Z,42.70
2019-03-20T18:44:58.967Z,42.40
2019-03-20T18:50:05.586Z,42.40
2019-03-20T18:55:12.575Z,42.40
2019-03-20T19:00:28.095Z,42.40
2019-03-20T19:05:51.000Z,42.40
2019-03-20T19:10:56.731Z,42.40
2019-03-20T19:16:01.642Z,42.40
2019-03-20T19:21:06.454Z,42.40
2019-03-20T19:26:13.036Z,42.40
2019-03-20T19:31:17.920Z,42.70
2019-03-20T19:36:22.707Z,42.90
2019-03-20T19:41:27.683Z,43.00
2019-03-20T19:46:32.640Z,43.10
2019-03-20T19:51:37.601Z,43.40
2019-03-20T19:56:42.738Z,43.00
2019-03-20T20:01:47.522Z,42.80
2019-03-20T20:06:52.762Z,43.00
2019-03-20T20:11:57.544Z,42.90
2019-03-20T20:17:02.754Z,42.80
2019-03-20T20:22:07.481Z,42.90
2019-03-20T20:27:13.246Z,42.70
2019-03-20T20:32:17.985Z,42.70
2019-03-20T20:37:22.860Z,42.80
2019-03-20T20:42:27.780Z,43.20
2019-03-20T20:47:32.671Z,43.30
2019-03-20T20:52:38.780Z,43.20
2019-03-20T20:57:44.033Z,43.10
2019-03-20T21:02:49.077Z,43.00
2019-03-20T21:07:53.937Z,43.00
2019-03-20T21:12:58.795Z,43.00
2019-03-20T21:18:15.952Z,43.00
2019-03-20T21:23:58.315Z,42.90
2019-03-20T21:29:34.569Z,42.80
2019-03-20T21:35:01.774Z,42.70
2019-03-20T21:40:09.428Z,42.60
2019-03-20T21:45:32.212Z,42.70
2019-03-20T21:50:43.062Z,42.60
2019-03-20T21:56:23.981Z,42.50
2019-03-20T22:01:37.534Z,42.70
2019-03-20T22:07:01.766Z,42.70
2019-03-20T22:12:18.402Z,42.50
2019-03-20T22:17:28.488Z,42.40
2019-03-20T22:22:38.881Z,42.40
2019-03-20T22:27:49.663Z,42.30
2019-03-20T22:33:09.413Z,42.40
2019-03-20T22:38:17.705Z,42.30
2019-03-20T22:43:30.507Z,42.50
2019-03-20T22:48:54.496Z,42.30
2019-03-20T22:54:21.811Z,42.20
2019-03-20T22:59:27.698Z,42.40
2019-03-20T23:04:35.557Z,42.20
2019-03-20T23:09:40.653Z,42.30
2019-03-20T23:14:45.415Z,42.30
2019-03-20T23:19:50.795Z,42.50
2019-03-20T23:24:57.601Z,42.70
2019-03-20T23:30:02.678Z,42.80
2019-03-20T23:35:10.786Z,43.00
2019-03-20T23:40:16.637Z,43.00
2019-03-20T23:45:21.854Z,43.20
2019-03-20T23:50:26.900Z,43.30
2019-03-20T23:55:31.724Z,43.50
